Time;durP1;ratioP1;P1;durP2;ratioP2;P2;SDS_P1;SDS_P2;PMS_P1;PMS_P2;Temp;Humidity;BMP_temperature;BMP_pressure;BME280_temperature;BME280_humidity;BME280_pressure;Samples;Min_cycle;Max_cycle;Signal;HPM_P1;HPM_P2
2023/07/12 00:00:21;;;;;;;4.30;3.90;;;20.40;99.90;;;;;;5137935;27;20175;-46
2023/07/12 00:02:47;;;;;;;4.33;3.93;;;20.40;99.90;;;;;;5138125;27;20461;-46
2023/07/12 00:05:13;;;;;;;5.00;4.50;;;20.30;99.90;;;;;;5137975;27;20456;-47
2023/07/12 00:07:39;;;;;;;4.63;4.23;;;20.20;99.90;;;;;;5137681;27;20794;-46
2023/07/12 00:10:14;;;;;;;4.43;4.03;;;20.20;99.90;;;;;;5138264;27;20251;-49
2023/07/12 00:12:40;;;;;;;5.60;3.80;;;20.20;99.90;;;;;;5137804;27;20202;-46
2023/07/12 00:15:06;;;;;;;5.17;3.60;;;20.20;99.90;;;;;;5137414;27;20443;-47
2023/07/12 00:17:31;;;;;;;4.80;3.43;;;20.20;99.90;;;;;;5137459;27;20179;-46
2023/07/12 00:19:57;;;;;;;6.30;3.97;;;20.20;99.90;;;;;;5137013;27;20420;-51
2023/07/12 00:22:23;;;;;;;5.17;4.10;;;20.10;1.00;;;;;;5134566;27;20301;-48
2023/07/12 00:24:49;;;;;;;4.40;3.80;;;20.10;99.90;;;;;;5133961;27;20524;-47
2023/07/12 00:27:14;;;;;;;4.97;3.80;;;20.10;99.90;;;;;;5134148;27;20515;-50
2023/07/12 00:29:40;;;;;;;4.13;3.70;;;20.10;99.90;;;;;;5136265;27;20568;-46
2023/07/12 00:32:08;;;;;;;3.27;2.97;;;20.10;99.90;;;;;;5135570;27;20411;-46
2023/07/12 00:34:33;;;;;;;3.83;3.53;;;20.00;99.90;;;;;;5136059;27;20198;-49
2023/07/12 00:36:59;;;;;;;6.10;3.80;;;20.00;1.00;;;;;;5136198;27;20467;-45
2023/07/12 00:39:24;;;;;;;4.93;3.57;;;19.80;1.00;;;;;;5136029;27;20171;-49
2023/07/12 00:42:20;;;;;;;4.60;3.43;;;19.80;1.00;;;;;;5135818;27;20180;-47
2023/07/12 00:44:48;;;;;;;3.87;3.20;;;19.80;1.00;;;;;;5136412;27;20489;-48
2023/07/12 00:47:14;;;;;;;4.40;3.67;;;19.80;1.00;;;;;;5118140;27;20423;-46
2023/07/12 00:49:40;;;;;;;4.00;3.43;;;19.80;1.00;;;;;;5136147;27;20431;-47
2023/07/12 00:52:12;;;;;;;4.60;3.67;;;19.80;1.00;;;;;;5136171;27;20580;-48
2023/07/12 00:54:55;;;;;;;4.57;3.20;;;19.70;1.00;;;;;;5136804;27;20175;-48
2023/07/12 00:57:22;;;;;;;3.97;3.20;;;19.70;1.00;;;;;;5137911;27;20457;-49
2023/07/12 00:59:50;;;;;;;5.00;3.27;;;19.70;1.00;;;;;;5137984;27;20416;-48
2023/07/12 01:02:16;;;;;;;3.87;3.50;;;19.60;1.00;;;;;;5138122;27;20684;-48
2023/07/12 01:04:47;;;;;;;4.50;3.43;;;19.70;1.00;;;;;;5119262;27;20427;-46
2023/07/12 01:07:13;;;;;;;5.27;3.57;;;19.70;1.00;;;;;;5137340;27;20182;-50
2023/07/12 01:09:39;;;;;;;8.30;3.53;;;19.80;1.00;;;;;;5136779;27;20794;-49
2023/07/12 01:12:05;;;;;;;5.80;3.83;;;19.70;1.00;;;;;;5134645;27;20497;-48
2023/07/12 01:14:42;;;;;;;7.03;2.97;;;19.60;1.00;;;;;;5134923;27;20626;-47
2023/07/12 01:17:08;;;;;;;3.60;3.00;;;19.60;1.00;;;;;;5119325;27;20496;-47
2023/07/12 01:19:35;;;;;;;3.47;3.10;;;19.70;1.00;;;;;;5137239;27;20667;-45
2023/07/12 01:22:01;;;;;;;6.23;3.70;;;19.90;1.00;;;;;;5137842;27;20479;-48
2023/07/12 01:24:28;;;;;;;5.97;3.20;;;20.10;1.00;;;;;;5134412;27;20409;-48
2023/07/12 01:27:03;;;;;;;3.43;3.13;;;20.30;99.90;;;;;;5133805;27;20477;-47
2023/07/12 01:29:29;;;;;;;3.93;3.30;;;20.30;99.90;;;;;;5115154;27;20431;-44
2023/07/12 01:31:55;;;;;;;3.93;3.50;;;20.40;99.90;;;;;;5132207;27;20435;-50
2023/07/12 01:34:22;;;;;;;7.47;3.00;;;20.30;99.90;;;;;;5132479;27;20464;-45
2023/07/12 01:36:48;;;;;;;3.37;3.07;;;20.30;99.90;;;;;;5131492;27;20181;-47
2023/07/12 01:39:14;;;;;;;4.80;3.37;;;20.20;99.90;;;;;;5131017;27;20698;-46
2023/07/12 01:41:45;;;;;;;4.60;3.50;;;20.30;99.90;;;;;;5131647;27;20236;-47
2023/07/12 01:44:20;;;;;;;4.37;2.70;;;20.40;99.90;;;;;;5131749;27;20542;-47
2023/07/12 01:46:45;;;;;;;4.90;3.27;;;20.40;99.90;;;;;;5133445;27;20469;-47
2023/07/12 01:49:11;;;;;;;3.83;3.40;;;20.40;99.90;;;;;;5134402;27;20496;-48
2023/07/12 01:51:37;;;;;;;5.27;3.60;;;20.30;99.90;;;;;;5135055;27;20381;-48
2023/07/12 01:54:03;;;;;;;3.63;3.33;;;20.10;99.90;;;;;;5118730;27;20310;-47
2023/07/12 01:56:28;;;;;;;7.30;3.83;;;19.90;1.00;;;;;;5134540;27;20515;-49
2023/07/12 01:58:54;;;;;;;4.03;3.63;;;19.80;1.00;;;;;;5133912;27;20486;-48
2023/07/12 02:01:20;;;;;;;7.70;4.00;;;19.60;1.00;;;;;;5132020;27;20183;-47
2023/07/12 02:03:45;;;;;;;4.63;3.83;;;19.50;1.00;;;;;;5132784;27;20457;-48
2023/07/12 02:06:11;;;;;;;6.90;4.80;;;19.60;1.00;;;;;;5135992;27;20167;-45
2023/07/12 02:08:36;;;;;;;4.30;3.90;;;19.60;1.00;;;;;;5133194;27;20558;-46
2023/07/12 02:11:02;;;;;;;4.43;3.77;;;19.60;1.00;;;;;;5132431;27;20190;-46
2023/07/12 02:13:28;;;;;;;6.23;4.07;;;19.70;1.00;;;;;;5122743;27;20224;-46
2023/07/12 02:15:53;;;;;;;5.60;4.10;;;19.80;1.00;;;;;;5113768;28;20820;-45
2023/07/12 02:18:19;;;;;;;5.87;3.80;;;20.10;1.00;;;;;;5113328;28;20163;-47
2023/07/12 02:20:45;;;;;;;4.27;3.00;;;20.20;99.90;;;;;;5113788;28;20168;-47
2023/07/12 02:23:11;;;;;;;3.60;3.30;;;20.30;99.90;;;;;;5113355;28;20444;-49
2023/07/12 02:25:36;;;;;;;6.20;3.60;;;20.40;99.90;;;;;;5112019;28;20206;-48
2023/07/12 02:28:02;;;;;;;4.17;2.90;;;20.50;99.90;;;;;;5110076;28;20210;-46
2023/07/12 02:30:29;;;;;;;3.33;3.03;;;20.60;99.90;;;;;;5109967;28;20337;-45
2023/07/12 02:32:55;;;;;;;4.07;3.67;;;20.70;99.90;;;;;;5108569;28;20242;-49
2023/07/12 02:35:22;;;;;;;3.60;2.70;;;20.70;99.90;;;;;;5112263;28;20409;-49
2023/07/12 02:37:49;;;;;;;4.47;3.20;;;20.70;98.30;;;;;;5111914;28;20533;-44
2023/07/12 02:40:25;;;;;;;8.10;4.50;;;20.80;29.50;;;;;;5111959;28;21064;-44
2023/07/12 02:42:51;;;;;;;6.13;3.67;;;20.80;1.00;;;;;;5115210;28;20428;-46
2023/07/12 02:45:17;;;;;;;5.07;3.87;;;20.70;1.00;;;;;;5115413;28;20699;-48
2023/07/12 02:47:42;;;;;;;6.33;4.03;;;20.60;1.00;;;;;;5111923;28;20426;-45
2023/07/12 02:50:26;;;;;;;5.20;4.70;;;20.50;68.70;;;;;;5111163;28;20433;-45
2023/07/12 02:53:34;;;;;;;6.73;3.70;;;20.40;99.90;;;;;;5109879;28;20301;-45
2023/07/12 02:56:00;;;;;;;5.53;4.17;;;20.30;99.90;;;;;;5107097;28;20514;-47
2023/07/12 02:58:25;;;;;;;5.03;3.63;;;20.20;99.90;;;;;;5111120;28;20433;-47
2023/07/12 03:00:59;;;;;;;5.03;3.60;;;20.10;99.90;;;;;;5111053;28;20182;-48
2023/07/12 03:03:26;;;;;;;4.60;3.90;;;20.20;99.90;;;;;;5105829;28;20195;-49
2023/07/12 03:05:51;;;;;;;4.80;3.70;;;20.20;99.90;;;;;;5112458;28;20585;-46
2023/07/12 03:08:20;;;;;;;5.40;3.80;;;20.20;99.90;;;;;;5110112;28;20441;-46
2023/07/12 03:10:46;;;;;;;5.67;3.80;;;20.20;99.90;;;;;;5106324;28;20176;-46
2023/07/12 03:13:11;;;;;;;4.70;4.20;;;20.30;99.90;;;;;;5106123;28;20514;-46
2023/07/12 03:15:38;;;;;;;5.13;4.30;;;20.30;99.90;;;;;;5106765;28;20191;-47
2023/07/12 03:18:04;;;;;;;6.47;4.17;;;20.20;99.90;;;;;;5107598;28;20536;-47
2023/07/12 03:20:33;;;;;;;8.30;4.60;;;20.10;99.90;;;;;;5108118;28;20551;-45
2023/07/12 03:23:01;;;;;;;5.03;4.03;;;20.10;99.90;;;;;;5109755;28;20422;-45
2023/07/12 03:25:26;;;;;;;8.03;5.00;;;20.10;99.90;;;;;;5112614;28;20441;-46
2023/07/12 03:27:52;;;;;;;6.60;4.60;;;20.00;99.90;;;;;;5113660;28;20519;-48
2023/07/12 03:30:18;;;;;;;4.50;4.10;;;19.90;99.90;;;;;;5113754;28;20248;-44
2023/07/12 03:32:43;;;;;;;5.00;4.20;;;19.90;99.90;;;;;;5113398;28;20212;-46
2023/07/12 03:35:09;;;;;;;9.43;4.80;;;20.00;99.90;;;;;;5111508;28;20250;-49
2023/07/12 03:37:35;;;;;;;5.93;4.60;;;20.00;99.90;;;;;;5111255;28;20186;-46
2023/07/12 03:40:01;;;;;;;5.07;4.60;;;20.00;99.90;;;;;;5110146;28;20512;-45
2023/07/12 03:42:26;;;;;;;9.20;5.03;;;19.90;99.90;;;;;;5109910;28;20525;-51
2023/07/12 03:45:13;;;;;;;7.63;4.97;;;19.80;99.90;;;;;;5110521;28;20243;-46
2023/07/12 03:47:39;;;;;;;7.80;5.30;;;19.80;99.90;;;;;;5110122;28;20592;-47
2023/07/12 03:50:05;;;;;;;7.03;5.30;;;19.70;99.90;;;;;;5108280;28;20624;-46
2023/07/12 03:52:31;;;;;;;6.90;4.70;;;19.60;99.90;;;;;;5105991;28;20199;-44
2023/07/12 03:54:56;;;;;;;6.43;5.20;;;19.60;99.90;;;;;;5108670;28;20844;-44
2023/07/12 03:57:24;;;;;;;5.57;5.07;;;19.70;99.90;;;;;;5109404;28;20229;-44
2023/07/12 03:59:49;;;;;;;10.83;4.47;;;19.80;99.90;;;;;;5114177;28;20247;-47
2023/07/12 04:02:15;;;;;;;7.10;4.67;;;19.80;99.90;;;;;;5113643;28;20436;-56
2023/07/12 04:04:40;;;;;;;7.63;4.87;;;20.00;99.90;;;;;;5112012;28;20238;-55
2023/07/12 04:07:07;;;;;;;6.20;4.57;;;19.90;99.90;;;;;;5113236;28;20236;-55
2023/07/12 04:09:33;;;;;;;7.40;4.67;;;20.00;99.90;;;;;;5113437;28;20414;-56
2023/07/12 04:11:58;;;;;;;9.97;5.20;;;20.00;99.90;;;;;;5115666;28;20496;-56
2023/07/12 04:14:24;;;;;;;11.50;4.93;;;19.90;99.90;;;;;;5113775;28;20310;-56
2023/07/12 04:16:49;;;;;;;7.50;4.80;;;19.80;99.90;;;;;;5112138;28;20230;-57
2023/07/12 04:19:15;;;;;;;7.53;5.33;;;19.90;99.90;;;;;;5111701;28;20225;-51
2023/07/12 04:21:41;;;;;;;7.10;4.90;;;19.80;99.90;;;;;;5114196;28;20183;-53
2023/07/12 04:24:06;;;;;;;7.63;5.07;;;19.70;99.90;;;;;;5115110;28;20184;-57
2023/07/12 04:26:32;;;;;;;6.23;4.13;;;19.80;99.90;;;;;;5114304;28;20429;-52
2023/07/12 04:28:58;;;;;;;7.83;5.40;;;19.80;99.90;;;;;;5113305;28;20187;-57
2023/07/12 04:31:29;;;;;;;12.17;5.53;;;19.90;99.90;;;;;;5111908;28;20425;-53
2023/07/12 04:33:55;;;;;;;7.00;5.27;;;20.00;99.90;;;;;;5115462;28;20391;-50
2023/07/12 04:36:21;;;;;;;5.20;4.70;;;20.00;99.90;;;;;;5114961;28;20508;-57
2023/07/12 04:38:46;;;;;;;6.43;5.43;;;20.10;99.90;;;;;;5115395;28;20183;-51
2023/07/12 04:41:12;;;;;;;8.77;5.27;;;20.10;99.90;;;;;;5115088;28;20180;-57
2023/07/12 04:43:38;;;;;;;7.50;5.30;;;20.20;99.90;;;;;;5112283;28;20258;-51
2023/07/12 04:46:04;;;;;;;7.17;4.03;;;20.20;99.90;;;;;;5111524;28;20617;-57
2023/07/12 04:48:30;;;;;;;8.37;5.00;;;20.20;99.90;;;;;;5113609;28;20180;-53
2023/07/12 04:50:57;;;;;;;8.10;5.37;;;20.40;95.10;;;;;;5111951;28;20479;-52
2023/07/12 04:53:24;;;;;;;8.97;4.30;;;20.50;46.00;;;;;;5110083;28;20499;-54
2023/07/12 04:55:54;;;;;;;7.10;4.93;;;20.50;50.90;;;;;;5107405;28;20663;-54
2023/07/12 04:58:26;;;;;;;7.97;4.97;;;20.50;57.00;;;;;;5107708;28;20421;-52
2023/07/12 05:00:53;;;;;;;8.23;6.47;;;20.40;42.70;;;;;;5109043;28;20425;-51
2023/07/12 05:03:19;;;;;;;10.60;5.07;;;20.50;28.50;;;;;;5110264;28;20685;-52
2023/07/12 05:05:45;;;;;;;9.37;5.70;;;20.60;9.10;;;;;;5111709;28;20442;-56
2023/07/12 05:08:11;;;;;;;10.10;7.00;;;20.70;1.00;;;;;;5110107;28;20207;-56
2023/07/12 05:10:37;;;;;;;8.60;5.47;;;20.70;1.00;;;;;;5108153;28;20715;-57
2023/07/12 05:13:03;;;;;;;7.57;5.33;;;20.80;1.00;;;;;;5109130;28;20524;-55
2023/07/12 05:15:29;;;;;;;8.23;5.30;;;20.70;1.00;;;;;;5109183;28;20495;-54
2023/07/12 05:17:57;;;;;;;8.57;5.83;;;20.70;27.10;;;;;;5110062;28;20180;-53
2023/07/12 05:20:23;;;;;;;7.97;5.90;;;20.70;43.80;;;;;;5108614;28;20180;-52
2023/07/12 05:22:48;;;;;;;12.23;5.67;;;20.80;1.00;;;;;;5108799;28;20863;-54
2023/07/12 05:25:14;;;;;;;9.07;6.33;;;20.90;1.00;;;;;;5109988;28;20179;-54
2023/07/12 05:27:46;;;;;;;5.63;5.13;;;20.90;10.20;;;;;;5110436;28;20171;-55
2023/07/12 05:30:12;;;;;;;9.17;7.03;;;20.90;10.30;;;;;;5109215;28;20487;-52
2023/07/12 05:32:38;;;;;;;8.47;6.90;;;20.90;1.00;;;;;;5109663;28;20572;-57
2023/07/12 05:35:07;;;;;;;9.67;5.63;;;20.90;48.40;;;;;;5093113;28;20521;-56
2023/07/12 05:37:33;;;;;;;7.20;6.10;;;21.00;32.30;;;;;;5110009;28;20509;-52
2023/07/12 05:40:03;;;;;;;6.90;6.30;;;21.00;32.00;;;;;;5106737;28;20490;-53
2023/07/12 05:42:29;;;;;;;8.00;6.70;;;21.10;14.70;;;;;;5109141;28;20425;-57
2023/07/12 05:44:55;;;;;;;12.77;6.67;;;21.20;1.00;;;;;;5109272;28;20425;-57
2023/07/12 05:47:20;;;;;;;6.90;6.20;;;21.30;1.00;;;;;;5108502;28;20179;-51
2023/07/12 05:49:46;;;;;;;10.07;6.30;;;21.30;1.00;;;;;;5105404;28;20180;-54
2023/07/12 05:52:12;;;;;;;10.37;6.87;;;21.30;1.00;;;;;;5104992;28;20261;-52
2023/07/12 05:54:37;;;;;;;7.90;6.37;;;21.40;1.00;;;;;;5104544;28;20701;-55
2023/07/12 05:57:06;;;;;;;14.20;7.27;;;21.30;1.00;;;;;;5108148;27;20347;-56
2023/07/12 05:59:32;;;;;;;6.60;5.53;;;21.40;1.00;;;;;;5127008;27;20333;-54
2023/07/12 06:01:57;;;;;;;6.93;5.60;;;21.60;1.00;;;;;;5125629;27;20451;-55
2023/07/12 06:04:23;;;;;;;7.77;6.97;;;21.80;1.00;;;;;;5127962;27;20183;-53
2023/07/12 06:06:50;;;;;;;8.80;6.90;;;21.90;99.90;;;;;;5111480;27;20163;-56
2023/07/12 06:09:16;;;;;;;8.73;6.30;;;22.00;99.90;;;;;;5113245;27;20429;-52
2023/07/12 06:11:42;;;;;;;8.87;6.27;;;22.10;99.90;;;;;;5134556;27;20416;-53
2023/07/12 06:14:07;;;;;;;6.70;6.10;;;22.20;99.90;;;;;;5133786;27;20207;-57
2023/07/12 06:16:33;;;;;;;9.50;6.00;;;22.20;99.90;;;;;;5115439;27;20404;-55
2023/07/12 06:18:59;;;;;;;10.30;6.40;;;22.30;99.90;;;;;;5135105;27;20182;-56
2023/07/12 06:21:25;;;;;;;11.90;6.93;;;22.40;50.70;;;;;;5116016;27;20405;-55
2023/07/12 06:23:50;;;;;;;7.20;6.60;;;22.30;99.90;;;;;;5116742;27;20183;-51
2023/07/12 06:26:16;;;;;;;9.23;6.10;;;22.20;99.90;;;;;;5135509;27;20235;-56
2023/07/12 06:28:41;;;;;;;7.77;7.07;;;22.30;99.90;;;;;;5115348;27;20367;-57
2023/07/12 06:31:07;;;;;;;9.20;6.93;;;22.40;99.90;;;;;;5134886;27;20179;-52
2023/07/12 06:33:32;;;;;;;8.50;7.70;;;22.40;99.90;;;;;;5130974;27;20194;-54
2023/07/12 06:35:58;;;;;;;6.83;6.23;;;22.50;38.00;;;;;;5130526;27;20175;-56
2023/07/12 06:38:24;;;;;;;8.13;7.33;;;22.70;1.00;;;;;;5130367;27;20174;-52
2023/07/12 06:40:49;;;;;;;8.13;7.33;;;22.80;1.00;;;;;;5130501;27;20167;-54
2023/07/12 06:43:15;;;;;;;11.30;7.50;;;22.90;1.00;;;;;;5131362;27;20462;-55
2023/07/12 06:45:44;;;;;;;8.63;7.30;;;23.00;1.00;;;;;;5131558;27;20365;-51
2023/07/12 06:48:10;;;;;;;8.10;7.27;;;22.90;99.90;;;;;;5133522;27;20291;-50
2023/07/12 06:50:36;;;;;;;13.17;7.03;;;22.90;1.00;;;;;;5133352;27;20443;-56
2023/07/12 06:53:02;;;;;;;8.00;7.20;;;23.10;1.00;;;;;;5133975;27;20302;-55
2023/07/12 06:55:27;;;;;;;9.63;7.63;;;23.30;99.90;;;;;;5134326;27;20219;-51
2023/07/12 06:57:53;;;;;;;7.97;7.17;;;23.60;1.00;;;;;;5133043;27;20423;-57
2023/07/12 07:00:19;;;;;;;8.00;6.80;;;23.70;99.90;;;;;;5131415;27;20175;-52
2023/07/12 07:02:44;;;;;;;7.97;7.17;;;23.80;61.30;;;;;;5115835;28;20263;-52
2023/07/12 07:05:10;;;;;;;8.17;7.10;;;23.80;1.00;;;;;;5132183;27;20250;-53
2023/07/12 07:07:36;;;;;;;10.63;7.50;;;23.70;19.60;;;;;;5131138;27;20623;-57
2023/07/12 07:10:01;;;;;;;7.40;6.70;;;23.60;1.00;;;;;;5113740;28;20187;-51
2023/07/12 07:12:28;;;;;;;7.87;7.07;;;23.50;1.00;;;;;;5133282;28;20281;-57
2023/07/12 07:14:54;;;;;;;13.13;8.07;;;23.60;99.90;;;;;;5130378;28;20175;-55
2023/07/12 07:17:20;;;;;;;9.20;8.00;;;23.50;1.00;;;;;;5129814;28;20501;-52
2023/07/12 07:19:46;;;;;;;10.37;7.90;;;23.50;99.90;;;;;;5129487;28;20502;-56
2023/07/12 07:22:11;;;;;;;13.77;8.10;;;23.70;1.00;;;;;;5130350;28;20500;-54
2023/07/12 07:24:37;;;;;;;9.43;7.77;;;23.50;99.90;;;;;;5129572;28;20375;-54
2023/07/12 07:27:03;;;;;;;10.30;7.20;;;23.50;99.90;;;;;;5131439;28;20171;-57
2023/07/12 07:29:29;;;;;;;9.03;7.83;;;23.50;99.90;;;;;;5131770;28;20179;-57
2023/07/12 07:31:54;;;;;;;9.00;7.50;;;23.50;57.20;;;;;;5132577;28;20930;-55
2023/07/12 07:34:20;;;;;;;8.97;8.03;;;23.50;91.50;;;;;;5136817;27;20202;-53
2023/07/12 07:36:46;;;;;;;10.17;9.07;;;23.40;99.90;;;;;;5138835;27;20271;-55
2023/07/12 07:39:11;;;;;;;10.20;8.23;;;23.30;99.90;;;;;;5134165;27;20568;-51
2023/07/12 07:41:37;;;;;;;15.50;9.27;;;23.40;1.00;;;;;;5135972;27;20177;-57
2023/07/12 07:44:03;;;;;;;11.20;8.97;;;23.60;99.90;;;;;;5136987;27;20174;-53
2023/07/12 07:46:28;;;;;;;12.03;9.10;;;23.90;1.00;;;;;;5136481;27;20239;-52
2023/07/12 07:48:54;;;;;;;10.27;8.93;;;24.00;99.90;;;;;;5137262;27;20238;-56
2023/07/12 07:51:20;;;;;;;9.53;8.10;;;24.20;1.00;;;;;;5135508;27;20179;-54
2023/07/12 07:53:45;;;;;;;11.93;7.83;;;24.10;99.90;;;;;;5134645;27;20225;-53
2023/07/12 07:56:11;;;;;;;8.20;7.40;;;24.20;99.90;;;;;;5136988;27;20230;-53
2023/07/12 07:58:37;;;;;;;7.80;7.03;;;24.30;99.90;;;;;;5135554;27;20581;-55
2023/07/12 08:01:03;;;;;;;9.47;6.07;;;24.40;99.90;;;;;;5138476;27;20258;-57
2023/07/12 08:03:30;;;;;;;7.47;6.77;;;24.60;96.50;;;;;;5137488;27;20588;-49
2023/07/12 08:06:04;;;;;;;7.17;6.40;;;24.70;99.90;;;;;;5119808;27;20430;-47
2023/07/12 08:08:29;;;;;;;7.80;7.00;;;24.60;58.50;;;;;;5137726;27;20703;-47
2023/07/12 08:10:55;;;;;;;8.87;6.63;;;24.60;99.90;;;;;;5136934;27;20729;-49
2023/07/12 08:13:21;;;;;;;6.73;5.97;;;24.70;74.50;;;;;;5137173;27;20198;-51
2023/07/12 08:15:46;;;;;;;8.33;5.60;;;24.50;1.00;;;;;;5135894;27;20529;-51
2023/07/12 08:18:12;;;;;;;6.60;5.70;;;24.70;1.00;;;;;;5136690;27;20258;-48
2023/07/12 08:20:39;;;;;;;6.87;6.27;;;24.60;99.90;;;;;;5137463;27;20167;-51
2023/07/12 08:23:06;;;;;;;10.50;6.80;;;24.70;99.90;;;;;;5138126;27;20281;-48
2023/07/12 08:25:32;;;;;;;8.00;6.70;;;24.90;99.90;;;;;;5137276;27;20683;-50
2023/07/12 08:27:57;;;;;;;5.23;4.77;;;25.10;99.90;;;;;;5138209;27;20438;-49
2023/07/12 08:30:23;;;;;;;5.90;5.23;;;25.00;1.00;;;;;;5137261;27;20522;-48
2023/07/12 08:32:49;;;;;;;5.93;4.87;;;25.00;1.00;;;;;;5119132;27;20211;-49
2023/07/12 08:35:14;;;;;;;7.47;5.40;;;25.30;99.90;;;;;;5136323;27;20191;-49
2023/07/12 08:37:40;;;;;;;6.60;5.00;;;25.60;99.90;;;;;;5118824;27;20172;-49
2023/07/12 08:40:07;;;;;;;5.23;4.73;;;25.90;99.90;;;;;;5138596;27;20521;-49
2023/07/12 08:42:38;;;;;;;6.10;5.20;;;26.20;99.90;;;;;;5137151;27;20424;-49
2023/07/12 08:45:21;;;;;;;10.50;5.10;;;25.90;99.90;;;;;;5136779;27;20432;-48
2023/07/12 08:47:48;;;;;;;5.40;4.63;;;26.20;99.90;;;;;;5138160;27;20489;-47
2023/07/12 08:50:15;;;;;;;5.93;4.93;;;26.10;61.50;;;;;;5137810;27;20485;-50
2023/07/12 08:52:40;;;;;;;4.60;4.20;;;26.50;34.80;;;;;;5137533;27;20467;-51
2023/07/12 08:55:15;;;;;;;9.67;4.67;;;26.90;1.00;;;;;;5137975;27;20461;-51
2023/07/12 08:57:41;;;;;;;7.30;4.47;;;27.30;1.00;;;;;;5137669;27;20174;-48
2023/07/12 09:00:19;;;;;;;6.47;4.27;;;27.80;1.00;;;;;;5138085;27;20423;-46
2023/07/12 09:02:45;;;;;;;5.20;4.60;;;27.40;1.00;;;;;;5135049;27;20432;-50
2023/07/12 09:05:20;;;;;;;5.23;4.73;;;27.10;1.00;;;;;;5135761;27;20420;-48
2023/07/12 09:07:52;;;;;;;5.17;4.23;;;26.70;1.00;;;;;;5135433;27;20177;-48
2023/07/12 09:10:48;;;;;;;5.30;3.97;;;26.70;1.00;;;;;;5134430;27;20503;-48
2023/07/12 09:13:15;;;;;;;5.23;4.40;;;26.50;1.00;;;;;;5135168;27;20746;-48
2023/07/12 09:15:44;;;;;;;9.00;4.77;;;26.10;1.00;;;;;;5117761;27;20428;-50
2023/07/12 09:18:27;;;;;;;6.60;5.07;;;25.90;1.00;;;;;;5136663;27;20478;-50
2023/07/12 09:20:53;;;;;;;5.93;3.90;;;25.90;1.00;;;;;;5134322;27;20440;-48
2023/07/12 09:23:18;;;;;;;7.87;4.57;;;26.10;1.00;;;;;;5136379;27;20467;-49
2023/07/12 09:25:47;;;;;;;4.63;4.23;;;26.30;1.00;;;;;;5134426;27;20171;-50
2023/07/12 09:28:14;;;;;;;5.10;4.53;;;26.60;1.00;;;;;;5115476;27;20391;-49
2023/07/12 09:30:41;;;;;;;5.00;4.07;;;27.00;1.00;;;;;;5134761;27;20485;-48
2023/07/12 09:33:19;;;;;;;6.23;4.30;;;27.00;1.00;;;;;;5136697;27;20521;-48
2023/07/12 09:35:45;;;;;;;5.33;3.77;;;27.20;1.00;;;;;;5118853;27;20794;-49
2023/07/12 09:38:22;;;;;;;4.63;3.60;;;27.10;1.00;;;;;;5136300;27;20433;-48
2023/07/12 09:40:49;;;;;;;4.33;3.70;;;27.20;1.00;;;;;;5135301;27;20819;-45
2023/07/12 09:43:21;;;;;;;7.63;3.90;;;27.50;1.00;;;;;;5133900;27;20404;-49
2023/07/12 09:46:09;;;;;;;5.07;4.23;;;28.20;1.00;;;;;;5116184;27;20751;-49
2023/07/12 09:49:19;;;;;;;7.00;4.07;;;28.40;1.00;;;;;;5134305;27;20701;-47
2023/07/12 09:52:04;;;;;;;6.63;4.77;;;28.00;1.00;;;;;;5117569;27;20421;-51
2023/07/12 09:55:00;;;;;;;5.30;4.60;;;27.60;1.00;;;;;;5133008;27;20464;-48
2023/07/12 09:58:04;;;;;;;4.67;4.17;;;27.40;1.00;;;;;;5133924;27;20814;-48
2023/07/12 10:00:39;;;;;;;5.60;4.23;;;27.70;1.00;;;;;;5135383;27;20444;-48
2023/07/12 10:03:31;;;;;;;5.80;4.47;;;28.00;1.00;;;;;;5116352;27;20420;-49
2023/07/12 10:06:27;;;;;;;5.50;4.00;;;28.10;1.00;;;;;;5135633;27;20516;-48
2023/07/12 10:09:08;;;;;;;5.30;3.80;;;28.20;1.00;;;;;;5116603;27;20409;-48
2023/07/12 10:11:48;;;;;;;5.47;4.60;;;28.20;1.00;;;;;;5134285;27;20439;-51
2023/07/12 10:14:16;;;;;;;5.97;4.40;;;28.20;1.00;;;;;;5116497;27;20479;-47
2023/07/12 10:17:01;;;;;;;5.27;4.00;;;28.20;1.00;;;;;;5099048;27;20405;-47
2023/07/12 10:19:30;;;;;;;4.10;3.60;;;27.90;1.00;;;;;;5116088;27;20424;-48
2023/07/12 10:21:59;;;;;;;4.67;4.13;;;28.10;1.00;;;;;;5117686;27;20417;-49
2023/07/12 10:24:34;;;;;;;5.67;4.17;;;28.20;1.00;;;;;;5135475;27;20667;-46
2023/07/12 10:27:03;;;;;;;6.80;3.93;;;28.40;1.00;;;;;;5116839;27;20424;-47
2023/07/12 10:29:45;;;;;;;6.67;4.10;;;28.90;1.00;;;;;;5135053;27;20448;-48
2023/07/12 10:32:21;;;;;;;4.70;4.30;;;29.00;1.00;;;;;;5114743;27;20410;-46
2023/07/12 10:35:04;;;;;;;5.90;5.30;;;28.80;1.00;;;;;;5134295;27;20519;-49
2023/07/12 10:37:36;;;;;;;4.60;4.20;;;28.80;1.00;;;;;;5135632;27;20420;-47
2023/07/12 10:40:02;;;;;;;7.03;4.63;;;28.80;1.00;;;;;;5130250;27;20565;-48
2023/07/12 10:42:50;;;;;;;4.90;4.50;;;28.90;1.00;;;;;;5133450;27;20826;-48
2023/07/12 10:45:23;;;;;;;5.40;4.90;;;28.90;1.00;;;;;;5113932;27;20726;-49
2023/07/12 10:47:49;;;;;;;6.73;4.83;;;28.90;1.00;;;;;;5114444;27;20417;-47
2023/07/12 10:50:37;;;;;;;5.17;4.63;;;28.90;1.00;;;;;;5113672;27;21073;-48
2023/07/12 10:53:22;;;;;;;7.57;4.87;;;29.40;1.00;;;;;;5132664;27;20463;-50
2023/07/12 10:56:17;;;;;;;5.03;4.20;;;29.50;1.00;;;;;;5133064;27;20468;-48
2023/07/12 10:58:50;;;;;;;5.37;4.80;;;30.10;1.00;;;;;;5133785;27;20472;-46
2023/07/12 11:01:36;;;;;;;4.73;4.30;;;30.10;1.00;;;;;;5135897;27;20428;-47
2023/07/12 11:04:13;;;;;;;5.50;5.00;;;29.80;1.00;;;;;;5132329;27;20825;-48
2023/07/12 11:06:58;;;;;;;5.97;5.50;;;30.00;1.00;;;;;;5115642;28;20432;-49
2023/07/12 11:09:25;;;;;;;6.67;5.97;;;29.90;1.00;;;;;;5134371;28;20671;-51
2023/07/12 11:12:05;;;;;;;7.20;6.53;;;29.40;1.00;;;;;;5134081;28;20429;-46
2023/07/12 11:14:42;;;;;;;6.40;5.80;;;29.00;1.00;;;;;;5135944;28;20565;-46
2023/07/12 11:17:11;;;;;;;7.97;5.00;;;29.20;1.00;;;;;;5134121;28;20679;-48
2023/07/12 11:19:40;;;;;;;6.30;5.70;;;29.00;1.00;;;;;;5134197;28;20451;-45
2023/07/12 11:22:48;;;;;;;7.63;6.37;;;29.80;1.00;;;;;;5134024;28;20419;-50
2023/07/12 11:25:52;;;;;;;7.00;5.97;;;30.10;1.00;;;;;;5133277;28;20447;-48
2023/07/12 11:28:21;;;;;;;7.03;6.00;;;30.00;1.00;;;;;;5133685;28;20682;-48
2023/07/12 11:30:47;;;;;;;6.60;6.00;;;30.10;1.00;;;;;;5132629;28;20439;-48
2023/07/12 11:33:34;;;;;;;6.47;5.87;;;30.00;1.00;;;;;;5113689;28;20462;-48
2023/07/12 11:36:23;;;;;;;7.40;6.30;;;30.10;1.00;;;;;;5132582;28;20441;-51
2023/07/12 11:38:49;;;;;;;5.53;5.07;;;30.00;1.00;;;;;;5131708;28;20444;-49
2023/07/12 11:41:23;;;;;;;7.23;6.40;;;30.10;1.00;;;;;;5131964;28;20851;-49
2023/07/12 11:44:01;;;;;;;6.20;5.60;;;29.90;1.00;;;;;;5113464;28;20418;-47
2023/07/12 11:46:30;;;;;;;6.37;5.53;;;30.50;1.00;;;;;;5132445;28;20399;-52
2023/07/12 11:49:04;;;;;;;7.93;6.50;;;31.10;1.00;;;;;;5130649;28;20403;-48
2023/07/12 11:51:35;;;;;;;6.13;5.53;;;31.40;1.00;;;;;;5132315;28;20420;-46
2023/07/12 11:54:03;;;;;;;6.53;6.03;;;31.50;1.00;;;;;;5113762;28;20602;-47
2023/07/12 11:56:29;;;;;;;6.50;6.00;;;31.80;1.00;;;;;;5112806;28;20543;-50
2023/07/12 11:58:55;;;;;;;7.00;6.30;;;31.40;1.00;;;;;;5135415;28;20441;-48
2023/07/12 12:01:21;;;;;;;6.07;5.57;;;31.20;1.00;;;;;;5133908;28;20171;-50
2023/07/12 12:03:48;;;;;;;6.13;5.53;;;30.70;1.00;;;;;;5132744;28;20163;-48
2023/07/12 12:06:14;;;;;;;6.67;5.60;;;30.50;1.00;;;;;;5133011;28;20441;-48
2023/07/12 12:08:46;;;;;;;6.63;6.00;;;30.20;1.00;;;;;;5114226;28;20493;-55
2023/07/12 12:11:12;;;;;;;6.63;6.00;;;30.30;1.00;;;;;;5113476;28;20706;-52
2023/07/12 12:13:46;;;;;;;5.90;5.30;;;30.20;1.00;;;;;;5112820;28;20442;-48
2023/07/12 12:16:27;;;;;;;6.27;5.40;;;30.30;1.00;;;;;;5132204;28;20236;-50
2023/07/12 12:19:07;;;;;;;6.27;5.30;;;30.50;1.00;;;;;;5132434;27;20869;-48
2023/07/12 12:21:33;;;;;;;6.47;5.87;;;30.80;1.00;;;;;;5136051;27;20440;-49
2023/07/12 12:24:06;;;;;;;5.67;5.07;;;31.20;1.00;;;;;;5137352;27;20450;-48
2023/07/12 12:26:33;;;;;;;6.27;5.77;;;31.80;1.00;;;;;;5114616;27;20202;-48
2023/07/12 12:29:01;;;;;;;6.67;6.07;;;31.30;1.00;;;;;;5101807;28;20532;-48
2023/07/12 12:31:29;;;;;;;6.10;5.50;;;30.70;1.00;;;;;;5113116;28;20422;-48
2023/07/12 12:34:13;;;;;;;5.90;5.40;;;30.60;1.00;;;;;;5114773;28;20932;-49
2023/07/12 12:36:41;;;;;;;5.67;5.27;;;30.80;1.00;;;;;;5115919;28;20822;-51
2023/07/12 12:39:19;;;;;;;5.57;5.07;;;30.90;1.00;;;;;;5114030;28;20790;-51
2023/07/12 12:41:58;;;;;;;5.40;4.90;;;30.80;1.00;;;;;;5113390;28;20423;-51
2023/07/12 12:44:28;;;;;;;6.23;5.40;;;30.90;1.00;;;;;;5111374;28;20566;-51
2023/07/12 12:46:55;;;;;;;7.13;5.57;;;31.00;1.00;;;;;;5112101;28;20422;-48
2023/07/12 12:49:24;;;;;;;5.97;5.43;;;31.10;1.00;;;;;;5114446;28;20472;-50
2023/07/12 12:51:52;;;;;;;7.30;5.63;;;31.40;1.00;;;;;;5115448;28;20426;-50
2023/07/12 12:54:18;;;;;;;6.33;5.73;;;31.20;1.00;;;;;;5114590;28;20505;-53
2023/07/12 12:56:45;;;;;;;7.47;5.50;;;30.70;1.00;;;;;;5114050;28;20611;-49
2023/07/12 12:59:12;;;;;;;5.53;5.00;;;30.50;1.00;;;;;;5113310;28;20172;-49
2023/07/12 13:01:38;;;;;;;5.57;5.17;;;30.20;1.00;;;;;;5114407;28;20409;-49